< < Back
Terminal Aerodrome Forecast


Current Version              Previous Versions:   1  2  3  4  5  6  7  8  9  

Terminal Aerodrome Forecast

524
FTUS42 KCAE 232000 AAA
TAFCAE
TAF AMD
KCAE 232038Z 2321/2418 30010KT P6SM SKC
     FM240000 04005KT P6SM SKC=



Latest METAR

140
SAUS80 KWBC 240400 CCA
MTRCAE
METAR KCAE 240356Z 00000KT 10SM CLR 14/09 A2994 RMK AO2 SLP135
T01390089


USA.gov is the U.S. government's official web portal to all federal, state and local government web resources and services.